Terminal Aerodrome Forecast
Issued by NWS Louisville, KY

Home | Current Version | Previous Version | Text Only | Print | Product List | Glossary On
Versions: 1 2 3 4 5 6 7 8 9 10 11 12 13 14 15 16 17 18 19 20
000
FTUS43 KLMK 072300
TAFBWG
TAF
KBWG 072329Z 0800/0824 22010KT P6SM SCT060 BKN250
     FM080200 26007KT 3SM -SHRA BKN040
     FM080300 23006KT P6SM SCT060 BKN250
     FM081300 20012G24KT P6SM SCT040 BKN200
     FM081800 20012KT 6SM -SHRA BKN040 PROB30 0818/0823 VRB20G40KT
      3SM -TSRA BKN040CB=

USA.gov is the U.S. government's official web portal to all federal, state and local government web resources and services.